Time;durP1;ratioP1;P1;durP2;ratioP2;P2;SDS_P1;SDS_P2;PMS_P1;PMS_P2;Temp;Humidity;BMP_temperature;BMP_pressure;BME280_temperature;BME280_humidity;BME280_pressure;Samples;Min_cycle;Max_cycle;Signal;HPM_P1;HPM_P2
2022/05/24 00:02:27;;;;;;;4.28;3.00;;;22.50;95.70;;;;;;6282181;27;89087;-67
2022/05/24 00:05:31;;;;;;;3.40;3.10;;;22.50;95.20;;;;;;6281829;27;88008;-67
2022/05/24 00:08:34;;;;;;;4.60;2.97;;;22.60;95.40;;;;;;6280542;27;89155;-67
2022/05/24 00:11:35;;;;;;;4.03;3.03;;;22.60;95.30;;;;;;6281603;27;89149;-67
2022/05/24 00:18:10;;;;;;;3.92;2.90;;;22.60;95.60;;;;;;6221697;27;88006;-66
2022/05/24 00:21:12;;;;;;;3.35;2.70;;;22.60;95.50;;;;;;6268748;27;89339;-67
2022/05/24 00:24:14;;;;;;;4.50;3.10;;;22.60;95.60;;;;;;6281172;27;89201;-67
2022/05/24 00:27:16;;;;;;;3.50;2.60;;;22.60;95.60;;;;;;6281683;27;89179;-67
2022/05/24 00:30:20;;;;;;;3.10;2.80;;;22.60;95.60;;;;;;6285606;27;88310;-66
2022/05/24 00:33:22;;;;;;;3.00;2.60;;;22.60;95.40;;;;;;6273466;27;89093;-68
2022/05/24 00:36:24;;;;;;;4.65;2.83;;;22.60;95.90;;;;;;6277532;27;89048;-67
2022/05/24 00:39:26;;;;;;;2.55;2.35;;;22.50;95.40;;;;;;6277724;27;90115;-67
2022/05/24 00:42:31;;;;;;;3.67;3.10;;;22.60;95.60;;;;;;6272886;27;89174;-66
2022/05/24 00:45:38;;;;;;;3.97;2.70;;;22.50;95.60;;;;;;6274157;27;89079;-67
2022/05/24 00:48:48;;;;;;;3.85;2.60;;;22.50;95.60;;;;;;6285411;27;88936;-67
2022/05/24 00:51:56;;;;;;;2.97;2.67;;;22.50;95.40;;;;;;6282112;27;89094;-67
2022/05/24 00:54:59;;;;;;;4.30;2.58;;;22.60;95.50;;;;;;6271845;27;89120;-67
2022/05/24 00:58:07;;;;;;;3.80;2.92;;;22.60;95.70;;;;;;6284466;27;89047;-67
2022/05/24 01:01:27;;;;;;;3.40;2.50;;;22.60;95.80;;;;;;6286225;27;88683;-67
2022/05/24 01:04:29;;;;;;;3.72;2.80;;;22.60;96.10;;;;;;6272198;27;89331;-67
2022/05/24 01:07:31;;;;;;;3.80;2.53;;;22.60;96.10;;;;;;6284826;27;89076;-67
2022/05/24 01:10:37;;;;;;;3.72;2.50;;;22.60;96.20;;;;;;6284373;27;90458;-67
2022/05/24 01:13:39;;;;;;;3.38;2.63;;;22.60;96.30;;;;;;6271399;27;87936;-67
2022/05/24 01:16:43;;;;;;;3.15;2.83;;;22.60;96.30;;;;;;6279837;27;89132;-65
2022/05/24 01:19:47;;;;;;;3.92;2.50;;;22.50;96.40;;;;;;6282805;27;89164;-67
2022/05/24 01:23:27;;;;;;;3.30;2.55;;;22.60;96.50;;;;;;6280830;27;89377;-66
2022/05/24 01:26:45;;;;;;;3.65;2.60;;;22.60;96.30;;;;;;6236971;27;89008;-66
2022/05/24 01:29:47;;;;;;;2.55;2.25;;;22.50;96.30;;;;;;6275143;27;89101;-67
2022/05/24 01:36:13;;;;;;;2.70;2.50;;;22.50;96.20;;;;;;6284324;27;87235;-67
2022/05/24 01:39:15;;;;;;;3.40;2.85;;;22.50;96.10;;;;;;6274261;27;89141;-67
2022/05/24 01:42:20;;;;;;;2.92;2.63;;;22.60;96.30;;;;;;6283042;27;90016;-66
2022/05/24 01:45:26;;;;;;;3.45;2.38;;;22.50;95.90;;;;;;6284254;27;89062;-67
2022/05/24 01:48:33;;;;;;;2.50;1.92;;;22.60;96.00;;;;;;6265624;27;88966;-67
2022/05/24 01:51:41;;;;;;;4.97;3.45;;;22.50;96.40;;;;;;6284013;27;89078;-67
2022/05/24 01:54:46;;;;;;;3.65;2.90;;;22.60;96.20;;;;;;6283493;27;88218;-67
2022/05/24 01:57:52;;;;;;;3.58;2.70;;;22.60;96.40;;;;;;6282136;27;89035;-67
2022/05/24 02:00:58;;;;;;;3.15;2.58;;;22.60;96.20;;;;;;6273401;27;89086;-67
2022/05/24 02:04:02;;;;;;;3.90;2.85;;;22.60;96.60;;;;;;6284100;27;87061;-67
2022/05/24 02:07:07;;;;;;;4.38;3.30;;;22.50;96.80;;;;;;6283794;27;89118;-66
2022/05/24 02:10:10;;;;;;;3.75;3.00;;;22.50;97.10;;;;;;6282227;27;89039;-67
2022/05/24 02:13:14;;;;;;;2.97;2.40;;;22.50;97.00;;;;;;6281192;27;89947;-67
2022/05/24 02:16:22;;;;;;;3.28;2.97;;;22.60;96.80;;;;;;6282567;27;87925;-67
2022/05/24 02:19:26;;;;;;;3.35;2.40;;;22.50;97.00;;;;;;6283122;27;87998;-67
2022/05/24 02:22:30;;;;;;;3.33;2.47;;;22.50;96.90;;;;;;6281950;27;89205;-65
2022/05/24 02:25:36;;;;;;;3.80;2.67;;;22.50;97.30;;;;;;6283049;27;89080;-67
2022/05/24 02:28:40;;;;;;;3.90;2.90;;;22.50;97.40;;;;;;6281695;27;87060;-67
2022/05/24 02:31:42;;;;;;;4.45;2.85;;;22.50;97.60;;;;;;6282806;27;87998;-67
2022/05/24 02:34:44;;;;;;;3.17;2.85;;;22.50;97.30;;;;;;6284064;27;89482;-67
2022/05/24 02:37:47;;;;;;;3.88;3.00;;;22.50;97.60;;;;;;6282946;27;89060;-67
2022/05/24 02:44:13;;;;;;;4.53;3.00;;;22.50;97.40;;;;;;6283124;27;88244;-67
2022/05/24 02:47:16;;;;;;;3.78;3.05;;;22.50;97.60;;;;;;6274546;27;89110;-68
2022/05/24 02:50:20;;;;;;;3.28;2.72;;;22.50;97.70;;;;;;6278006;27;87945;-67
2022/05/24 02:53:22;;;;;;;3.28;2.80;;;22.50;97.50;;;;;;6282299;27;88713;-67
2022/05/24 02:56:24;;;;;;;3.13;2.80;;;22.50;97.60;;;;;;6282859;27;89431;-67
2022/05/24 02:59:28;;;;;;;3.55;2.90;;;22.50;97.60;;;;;;6282560;27;89179;-65
2022/05/24 03:02:30;;;;;;;4.18;3.17;;;22.50;97.50;;;;;;6282326;27;89160;-67
2022/05/24 03:05:32;;;;;;;4.63;3.03;;;22.40;97.40;;;;;;6282701;27;87176;-67
2022/05/24 03:15:15;;;;;;;5.70;3.85;;;22.50;96.80;;;;;;6281817;27;88089;-67
2022/05/24 03:18:18;;;;;;;4.07;3.58;;;22.40;97.10;;;;;;6282944;27;89183;-67
2022/05/24 03:21:20;;;;;;;4.63;3.03;;;22.50;97.00;;;;;;6269210;27;89132;-67
2022/05/24 03:24:22;;;;;;;4.20;3.05;;;22.50;96.80;;;;;;6277109;27;89020;-66
2022/05/24 03:27:24;;;;;;;5.10;3.60;;;22.50;96.70;;;;;;6279363;27;89488;-67
2022/05/24 03:30:29;;;;;;;3.80;3.35;;;22.50;96.80;;;;;;6282014;27;87898;-67
2022/05/24 03:33:31;;;;;;;4.93;3.58;;;22.50;96.60;;;;;;6281735;27;89216;-67
2022/05/24 03:36:33;;;;;;;3.88;3.45;;;22.50;96.40;;;;;;6282214;27;88297;-67
2022/05/24 03:39:36;;;;;;;3.85;3.15;;;22.50;96.60;;;;;;6281538;27;89198;-67
2022/05/24 03:42:38;;;;;;;3.63;2.90;;;22.50;96.60;;;;;;6282081;27;87819;-66
2022/05/24 03:45:42;;;;;;;5.05;3.40;;;22.50;96.20;;;;;;6280952;27;90242;-67
2022/05/24 03:48:44;;;;;;;3.00;2.60;;;22.50;96.30;;;;;;6269573;27;89011;-67
2022/05/24 03:51:47;;;;;;;5.13;3.08;;;22.50;96.30;;;;;;6281640;27;89142;-67
2022/05/24 03:54:49;;;;;;;3.63;3.22;;;22.40;96.70;;;;;;6281957;27;89032;-67
2022/05/24 03:58:03;;;;;;;3.83;2.88;;;22.50;96.50;;;;;;6281697;27;89319;-67
2022/05/24 04:01:06;;;;;;;3.20;2.90;;;22.40;96.40;;;;;;6280800;27;89092;-67
2022/05/24 04:04:08;;;;;;;5.10;3.75;;;22.50;96.50;;;;;;6283810;27;88155;-67
2022/05/24 04:07:10;;;;;;;4.72;4.15;;;22.50;96.40;;;;;;6286104;27;88446;-67
2022/05/24 04:10:14;;;;;;;4.93;3.47;;;22.50;96.40;;;;;;6286401;27;89066;-67
2022/05/24 04:13:16;;;;;;;4.13;3.53;;;22.50;96.20;;;;;;6281859;27;89082;-67
2022/05/24 04:16:19;;;;;;;2.75;2.55;;;22.50;96.20;;;;;;6279459;27;90323;-67
2022/05/24 04:19:22;;;;;;;3.20;2.90;;;22.50;96.10;;;;;;6285711;27;89004;-67
2022/05/24 04:22:24;;;;;;;3.13;2.50;;;22.50;96.10;;;;;;6286095;27;87765;-67
2022/05/24 04:25:27;;;;;;;3.50;2.67;;;22.50;96.30;;;;;;6285875;27;89436;-66
2022/05/24 04:28:29;;;;;;;3.85;2.70;;;22.50;96.60;;;;;;6285128;27;89558;-65
2022/05/24 04:31:33;;;;;;;3.22;2.80;;;22.50;97.00;;;;;;6286078;27;87137;-66
2022/05/24 04:34:35;;;;;;;4.32;3.45;;;22.50;96.90;;;;;;6285959;27;89147;-66
2022/05/24 04:37:37;;;;;;;3.42;3.13;;;22.50;97.00;;;;;;6286040;27;88702;-67
2022/05/24 04:43:58;;;;;;;3.42;3.00;;;22.50;96.80;;;;;;6285132;27;87319;-67
2022/05/24 04:47:11;;;;;;;3.63;3.28;;;22.50;96.80;;;;;;6278801;27;88708;-67
2022/05/24 04:50:13;;;;;;;4.03;3.63;;;22.50;96.70;;;;;;6279928;27;89308;-67
2022/05/24 04:53:15;;;;;;;3.85;3.15;;;22.40;97.00;;;;;;6284701;27;87950;-67
2022/05/24 04:56:17;;;;;;;4.22;3.20;;;22.50;96.80;;;;;;6285312;27;89455;-66
2022/05/24 04:59:19;;;;;;;3.60;3.30;;;22.50;96.80;;;;;;6284433;27;88989;-66
2022/05/24 05:02:23;;;;;;;4.75;3.10;;;22.50;96.90;;;;;;6284539;27;89158;-66
2022/05/24 05:05:25;;;;;;;4.15;3.70;;;22.50;99.80;;;;;;6284384;27;89431;-66
2022/05/24 05:08:27;;;;;;;3.92;3.53;;;22.50;99.90;;;;;;6284470;27;88628;-66
2022/05/24 05:11:29;;;;;;;3.90;3.60;;;22.60;99.90;;;;;;6284918;27;89107;-66
2022/05/24 05:14:32;;;;;;;4.03;3.30;;;22.60;99.90;;;;;;6283086;27;89391;-65
2022/05/24 05:17:35;;;;;;;5.30;3.10;;;22.70;99.90;;;;;;6283032;27;90154;-67
2022/05/24 05:20:41;;;;;;;3.70;3.17;;;22.70;99.20;;;;;;6283863;27;89147;-67
2022/05/24 05:23:43;;;;;;;3.47;2.97;;;22.80;99.00;;;;;;6280760;27;88998;-67
2022/05/24 05:26:44;;;;;;;4.22;2.90;;;22.80;99.10;;;;;;6280117;27;89073;-67
2022/05/24 05:33:12;;;;;;;2.50;2.30;;;22.80;99.50;;;;;;6277467;27;87572;-67
2022/05/24 05:36:15;;;;;;;2.50;2.30;;;22.70;99.80;;;;;;6283263;27;89157;-66
2022/05/24 05:39:17;;;;;;;2.63;2.25;;;22.70;99.50;;;;;;6284931;27;88529;-67
2022/05/24 05:42:19;;;;;;;3.15;2.40;;;22.80;99.80;;;;;;6284661;27;89021;-67
2022/05/24 05:45:21;;;;;;;3.15;2.35;;;22.70;99.60;;;;;;6283683;27;89130;-67
2022/05/24 05:48:25;;;;;;;3.47;2.40;;;22.70;99.50;;;;;;6280138;27;90229;-67
2022/05/24 05:51:27;;;;;;;3.75;2.53;;;22.70;99.80;;;;;;6284055;27;89136;-67
2022/05/24 05:54:29;;;;;;;3.85;2.58;;;22.70;99.90;;;;;;6283892;27;89056;-66
2022/05/24 05:57:31;;;;;;;4.07;2.70;;;22.70;99.60;;;;;;6282567;27;88264;-67
2022/05/24 06:00:33;;;;;;;3.05;2.28;;;22.70;99.50;;;;;;6284140;27;88242;-66
2022/05/24 06:03:37;;;;;;;3.08;2.20;;;22.60;99.70;;;;;;6273514;27;87742;-67
2022/05/24 06:06:42;;;;;;;3.00;2.70;;;22.70;99.60;;;;;;6283435;27;87791;-67
2022/05/24 06:09:44;;;;;;;3.10;2.60;;;22.70;99.50;;;;;;6280515;27;87451;-67
2022/05/24 06:12:46;;;;;;;2.88;2.50;;;22.70;99.30;;;;;;6275981;27;87914;-67
2022/05/24 06:15:51;;;;;;;2.42;2.22;;;22.60;99.30;;;;;;6275395;27;87776;-66
2022/05/24 06:18:54;;;;;;;4.32;2.60;;;22.70;99.40;;;;;;6265253;27;89309;-67
2022/05/24 06:21:56;;;;;;;4.38;2.53;;;22.60;99.30;;;;;;6277071;27;89079;-67
2022/05/24 06:24:58;;;;;;;5.28;2.50;;;22.60;99.40;;;;;;6282546;27;89186;-67
2022/05/24 06:28:01;;;;;;;2.88;2.55;;;22.60;99.30;;;;;;6274377;27;88934;-66
2022/05/24 06:31:03;;;;;;;3.38;2.42;;;22.60;99.30;;;;;;6276961;27;88857;-67
2022/05/24 06:34:06;;;;;;;2.90;2.15;;;22.60;99.50;;;;;;6270962;27;89372;-67
2022/05/24 06:37:08;;;;;;;2.17;1.98;;;22.60;99.70;;;;;;6281415;27;87968;-67
2022/05/24 06:40:12;;;;;;;2.90;2.50;;;22.60;99.50;;;;;;6273614;27;88740;-67
2022/05/24 06:43:14;;;;;;;4.65;2.30;;;22.60;99.70;;;;;;6270331;27;89101;-67
2022/05/24 06:46:16;;;;;;;3.22;2.40;;;22.60;99.40;;;;;;6282408;27;88966;-66
2022/05/24 06:49:20;;;;;;;2.85;2.40;;;22.60;99.60;;;;;;6268302;27;89974;-67
2022/05/24 06:52:22;;;;;;;3.15;2.55;;;22.70;99.70;;;;;;6273968;27;89300;-67
2022/05/24 06:55:25;;;;;;;3.15;2.40;;;22.60;99.50;;;;;;6279666;27;89087;-66
2022/05/24 06:58:27;;;;;;;3.70;2.25;;;22.60;99.90;;;;;;6276175;27;89959;-67
2022/05/24 07:04:49;;;;;;;2.67;2.40;;;22.70;99.90;;;;;;6269627;27;87315;-67
2022/05/24 07:07:52;;;;;;;3.35;2.25;;;22.70;99.90;;;;;;6273623;27;89175;-67
2022/05/24 07:10:54;;;;;;;2.58;1.98;;;22.70;99.90;;;;;;6282824;27;88459;-67
2022/05/24 07:13:56;;;;;;;3.58;2.30;;;22.70;99.90;;;;;;6269229;27;89080;-67
2022/05/24 07:16:58;;;;;;;2.38;2.05;;;22.70;99.90;;;;;;6282274;27;89145;-67
2022/05/24 07:20:02;;;;;;;3.17;2.40;;;22.70;99.90;;;;;;6281237;27;90274;-67
2022/05/24 07:23:09;;;;;;;3.80;2.30;;;22.70;99.90;;;;;;6279429;27;89181;-67
2022/05/24 07:26:14;;;;;;;2.58;2.38;;;22.70;99.90;;;;;;6281660;27;88941;-67
2022/05/24 07:29:16;;;;;;;2.28;2.08;;;22.70;99.90;;;;;;6281928;27;89063;-66
2022/05/24 07:32:18;;;;;;;3.40;2.40;;;22.70;99.90;;;;;;6281948;27;89072;-67
2022/05/24 07:35:22;;;;;;;2.95;2.10;;;22.70;99.90;;;;;;6282479;27;89459;-67
2022/05/24 07:38:24;;;;;;;3.65;2.10;;;22.70;99.90;;;;;;6271097;27;89071;-66
2022/05/24 07:48:09;;;;;;;2.65;2.10;;;22.70;99.90;;;;;;6242380;27;87870;-66
2022/05/24 07:51:12;;;;;;;2.53;2.00;;;22.70;99.90;;;;;;6280573;27;89879;-67
2022/05/24 07:54:14;;;;;;;3.08;2.10;;;22.70;99.90;;;;;;6281837;27;87833;-66
2022/05/24 07:57:16;;;;;;;2.90;2.30;;;22.70;99.90;;;;;;6281176;27;88094;-66
2022/05/24 08:00:19;;;;;;;2.40;2.13;;;22.70;99.90;;;;;;6281997;27;89140;-67
2022/05/24 08:03:21;;;;;;;3.17;2.30;;;22.70;99.90;;;;;;6276842;27;89078;-66
2022/05/24 08:06:24;;;;;;;2.38;2.00;;;22.70;99.90;;;;;;6274110;27;88084;-67
2022/05/24 08:09:26;;;;;;;2.72;2.10;;;22.70;99.90;;;;;;6280627;27;89248;-69
2022/05/24 08:12:29;;;;;;;2.75;2.40;;;22.70;99.90;;;;;;6271511;27;88357;-67
2022/05/24 08:15:31;;;;;;;3.28;2.50;;;22.70;99.90;;;;;;6281786;27;89091;-68
2022/05/24 08:18:33;;;;;;;5.63;2.30;;;22.60;99.90;;;;;;6268839;27;89173;-66
2022/05/24 08:21:37;;;;;;;3.45;2.28;;;22.60;99.90;;;;;;6280233;27;89973;-68
2022/05/24 08:24:39;;;;;;;2.95;2.30;;;22.60;99.90;;;;;;6280265;27;89234;-67
2022/05/24 08:27:41;;;;;;;3.75;1.98;;;22.60;99.90;;;;;;6281341;27;89628;-68
2022/05/24 08:30:43;;;;;;;3.38;2.50;;;22.60;99.90;;;;;;6279386;27;89048;-68
2022/05/24 08:33:47;;;;;;;2.92;2.40;;;22.60;99.90;;;;;;6268826;27;89066;-66
2022/05/24 08:36:50;;;;;;;3.67;2.58;;;22.60;99.90;;;;;;6281036;27;89098;-67
2022/05/24 08:39:57;;;;;;;4.00;2.40;;;22.60;99.90;;;;;;6273098;27;88056;-67
2022/05/24 08:43:18;;;;;;;3.13;2.25;;;22.60;99.90;;;;;;6276313;27;87594;-67
2022/05/24 08:49:47;;;;;;;2.85;2.13;;;22.60;99.90;;;;;;6268143;27;89137;-68
2022/05/24 08:52:56;;;;;;;2.47;1.98;;;22.60;99.90;;;;;;6283383;27;89234;-67
2022/05/24 08:55:59;;;;;;;3.60;2.20;;;22.60;99.90;;;;;;6284900;27;89017;-67
2022/05/24 08:59:05;;;;;;;3.97;2.08;;;22.60;99.90;;;;;;6285154;27;89015;-67
2022/05/24 09:02:08;;;;;;;3.67;2.30;;;22.60;99.90;;;;;;6285188;27;89100;-67
2022/05/24 09:05:20;;;;;;;3.15;2.00;;;22.60;99.90;;;;;;6271414;27;89154;-68
2022/05/24 09:08:28;;;;;;;2.53;1.80;;;22.60;99.90;;;;;;6284901;27;89358;-67
2022/05/24 09:11:46;;;;;;;2.90;1.90;;;22.70;99.90;;;;;;6285113;27;89072;-68
2022/05/24 09:14:57;;;;;;;3.25;2.20;;;22.60;99.90;;;;;;6285022;27;88513;-66
2022/05/24 09:18:08;;;;;;;3.13;2.13;;;22.70;99.90;;;;;;6284454;27;89109;-67
2022/05/24 09:21:20;;;;;;;2.67;1.70;;;22.70;99.90;;;;;;6284145;27;89028;-68
2022/05/24 09:24:32;;;;;;;2.67;1.73;;;22.70;99.90;;;;;;6284017;27;90225;-68
2022/05/24 09:27:51;;;;;;;2.20;1.85;;;22.70;99.90;;;;;;6278205;27;89073;-67
2022/05/24 09:30:58;;;;;;;1.95;1.63;;;22.70;99.90;;;;;;6284232;27;89046;-68
2022/05/24 09:34:04;;;;;;;4.25;1.90;;;22.70;99.90;;;;;;6283631;27;89124;-68
2022/05/24 09:37:10;;;;;;;2.30;1.73;;;22.70;99.90;;;;;;6284357;27;89203;-67
2022/05/24 09:40:20;;;;;;;1.98;1.77;;;22.70;99.90;;;;;;6284064;27;89111;-67
2022/05/24 09:43:29;;;;;;;1.92;1.70;;;22.70;99.90;;;;;;6284277;27;89060;-67
2022/05/24 09:46:32;;;;;;;2.13;1.92;;;22.70;99.90;;;;;;6283583;27;88509;-68
2022/05/24 09:49:35;;;;;;;3.08;2.28;;;22.70;99.90;;;;;;6273450;27;90549;-66
2022/05/24 09:52:37;;;;;;;2.20;1.80;;;22.70;99.90;;;;;;6283990;27;89483;-67
2022/05/24 09:55:45;;;;;;;2.50;2.00;;;22.70;99.90;;;;;;6283651;27;91833;-68
2022/05/24 09:58:53;;;;;;;2.42;1.90;;;22.80;99.90;;;;;;6283888;27;89083;-67
2022/05/24 10:01:56;;;;;;;2.50;2.00;;;22.70;99.90;;;;;;6282688;27;87936;-67
2022/05/24 10:05:00;;;;;;;2.10;1.88;;;22.70;99.90;;;;;;6274687;27;89083;-68
2022/05/24 10:08:05;;;;;;;3.53;2.00;;;22.70;99.90;;;;;;6273189;27;89360;-67
2022/05/24 10:11:21;;;;;;;2.00;1.75;;;22.70;99.90;;;;;;6283661;27;89103;-67
2022/05/24 10:14:33;;;;;;;2.00;1.80;;;22.70;99.90;;;;;;6283404;27;89509;-67
2022/05/24 10:17:45;;;;;;;2.17;1.98;;;22.80;99.90;;;;;;6283905;27;88698;-67
2022/05/24 10:20:57;;;;;;;2.40;1.92;;;22.70;99.90;;;;;;6282974;27;89228;-68
2022/05/24 10:24:17;;;;;;;2.28;1.98;;;22.70;99.90;;;;;;6262373;27;87893;-66
2022/05/24 10:27:30;;;;;;;3.03;2.00;;;22.70;99.90;;;;;;6282248;27;90167;-67
2022/05/24 10:30:45;;;;;;;2.38;2.00;;;22.70;99.70;;;;;;6283004;27;89271;-67
2022/05/24 10:40:57;;;;;;;3.92;2.13;;;22.80;99.70;;;;;;6283153;27;87320;-67
2022/05/24 10:44:07;;;;;;;2.83;1.88;;;22.70;99.70;;;;;;6282104;27;89181;-68
2022/05/24 10:47:15;;;;;;;2.83;2.08;;;22.70;99.60;;;;;;6282460;27;89469;-67
2022/05/24 10:50:24;;;;;;;3.33;2.30;;;22.70;99.70;;;;;;6283080;27;88329;-67
2022/05/24 10:53:33;;;;;;;3.08;2.17;;;22.70;99.60;;;;;;6282608;27;89058;-67
2022/05/24 10:56:43;;;;;;;2.75;2.17;;;22.70;99.40;;;;;;6282545;27;88994;-67
2022/05/24 10:59:54;;;;;;;2.85;2.05;;;22.70;99.40;;;;;;6282660;27;90378;-68
2022/05/24 11:03:07;;;;;;;2.33;2.13;;;22.70;99.30;;;;;;6282686;27;88196;-68
2022/05/24 11:06:17;;;;;;;2.42;2.10;;;22.70;99.10;;;;;;6282567;27;89001;-68
2022/05/24 11:09:21;;;;;;;2.20;2.00;;;22.80;99.00;;;;;;6282415;27;89046;-68
2022/05/24 11:12:29;;;;;;;3.08;2.30;;;22.70;98.90;;;;;;6282314;27;89040;-68
2022/05/24 11:15:41;;;;;;;4.07;2.33;;;22.70;98.80;;;;;;6281515;27;89072;-68
2022/05/24 11:18:44;;;;;;;2.30;2.10;;;22.70;98.60;;;;;;6281687;27;89447;-68
2022/05/24 11:21:52;;;;;;;3.45;2.60;;;22.70;98.80;;;;;;6282330;27;88748;-68
2022/05/24 11:25:02;;;;;;;3.17;2.33;;;22.70;99.90;;;;;;6281798;27;89119;-66
2022/05/24 11:28:21;;;;;;;8.10;2.92;;;22.70;99.90;;;;;;6281321;27;88185;-67
2022/05/24 11:31:38;;;;;;;3.80;2.60;;;22.70;99.90;;;;;;6281552;27;90061;-67
2022/05/24 11:34:54;;;;;;;3.75;2.45;;;22.80;99.90;;;;;;6282398;27;89092;-68
2022/05/24 11:38:09;;;;;;;6.28;2.63;;;22.80;99.90;;;;;;6270631;27;89297;-67
2022/05/24 11:41:26;;;;;;;2.90;2.20;;;22.70;99.90;;;;;;6282561;27;89002;-68
2022/05/24 11:44:31;;;;;;;2.70;2.38;;;22.80;99.90;;;;;;6281119;27;89068;-66
2022/05/24 11:48:16;;;;;;;3.97;2.53;;;22.70;99.90;;;;;;6273569;27;89479;-68
2022/05/24 11:51:39;;;;;;;4.80;2.50;;;22.70;99.90;;;;;;6258289;27;89194;-67
2022/05/24 11:54:59;;;;;;;5.28;2.45;;;22.70;99.90;;;;;;6281985;27;89849;-66
2022/05/24 11:58:07;;;;;;;3.03;2.47;;;22.80;99.90;;;;;;6281081;27;89112;-67
2022/05/24 12:01:31;;;;;;;2.63;2.30;;;22.80;99.90;;;;;;6269235;27;89062;-67
2022/05/24 12:08:28;;;;;;;2.95;2.60;;;22.70;99.90;;;;;;6280063;27;87150;-67
2022/05/24 12:11:36;;;;;;;3.47;2.47;;;22.70;99.90;;;;;;6281587;27;90039;-67
2022/05/24 12:14:40;;;;;;;2.40;2.08;;;22.70;99.90;;;;;;6281632;27;89133;-67
2022/05/24 12:17:42;;;;;;;2.97;2.08;;;22.70;99.90;;;;;;6281380;27;89093;-66
2022/05/24 12:20:59;;;;;;;2.47;2.28;;;22.70;99.90;;;;;;6281432;27;89039;-67
2022/05/24 12:24:40;;;;;;;3.42;2.15;;;22.70;99.90;;;;;;6277687;27;89035;-67
2022/05/24 12:27:49;;;;;;;3.25;2.00;;;22.70;99.90;;;;;;6258934;27;87475;-67
2022/05/24 12:30:53;;;;;;;2.95;1.85;;;22.60;99.90;;;;;;6285700;27;89093;-66
2022/05/24 12:33:56;;;;;;;2.40;1.67;;;22.70;99.90;;;;;;6285558;27;89040;-67
2022/05/24 12:37:17;;;;;;;2.20;2.00;;;22.70;99.90;;;;;;6284833;27;89874;-67
2022/05/24 12:40:21;;;;;;;1.70;1.58;;;22.60;99.90;;;;;;6285455;27;89143;-67
2022/05/24 12:43:23;;;;;;;1.90;1.52;;;22.60;99.90;;;;;;6284994;27;89347;-67
2022/05/24 12:46:30;;;;;;;2.40;1.75;;;22.60;99.90;;;;;;6285324;27;89162;-67
2022/05/24 12:49:34;;;;;;;2.15;1.77;;;22.60;99.90;;;;;;6285203;27;89023;-67
2022/05/24 12:52:43;;;;;;;2.05;1.70;;;22.60;99.90;;;;;;6285376;27;89014;-67
2022/05/24 12:55:56;;;;;;;2.30;1.58;;;22.60;99.90;;;;;;6273376;27;87984;-67
2022/05/24 12:59:10;;;;;;;2.47;1.75;;;22.50;99.90;;;;;;6273525;27;88380;-67
2022/05/24 13:02:27;;;;;;;3.35;1.70;;;22.50;99.90;;;;;;6284863;27;89466;-67
2022/05/24 13:05:36;;;;;;;3.47;1.90;;;22.50;99.90;;;;;;6282413;27;89373;-68
2022/05/24 13:08:40;;;;;;;3.40;1.90;;;22.50;99.90;;;;;;6282678;27;90098;-67
2022/05/24 13:11:42;;;;;;;1.55;1.45;;;22.50;99.90;;;;;;6284546;27;88087;-68
2022/05/24 13:14:48;;;;;;;2.97;1.70;;;22.50;99.90;;;;;;6283910;27;89496;-67
2022/05/24 13:17:54;;;;;;;1.85;1.48;;;22.50;99.90;;;;;;6285538;27;88969;-67
2022/05/24 13:20:58;;;;;;;1.98;1.60;;;22.50;99.90;;;;;;6283669;27;88983;-67
2022/05/24 13:24:10;;;;;;;2.75;1.65;;;22.50;99.90;;;;;;6279455;27;89107;-67
2022/05/24 13:27:12;;;;;;;1.60;1.50;;;22.40;99.90;;;;;;6284423;27;88273;-67
2022/05/24 13:33:37;;;;;;;4.45;1.90;;;22.40;99.90;;;;;;6285247;27;87289;-67
2022/05/24 13:36:43;;;;;;;5.97;1.83;;;22.40;99.90;;;;;;6278948;27;89067;-67
2022/05/24 13:39:53;;;;;;;4.10;2.00;;;22.40;99.90;;;;;;6274900;27;89946;-66
2022/05/24 13:42:57;;;;;;;6.45;2.10;;;22.40;99.90;;;;;;6283930;27;89144;-68
2022/05/24 13:46:08;;;;;;;5.35;1.80;;;22.50;99.90;;;;;;6270588;27;89090;-67
2022/05/24 13:49:10;;;;;;;3.08;1.67;;;22.50;99.90;;;;;;6271975;27;89006;-67
2022/05/24 13:52:21;;;;;;;2.83;1.80;;;22.50;99.90;;;;;;6284002;27;89142;-66
2022/05/24 13:55:27;;;;;;;3.70;2.10;;;22.50;99.90;;;;;;6283966;27;89176;-67
2022/05/24 13:58:35;;;;;;;3.55;1.60;;;22.50;99.90;;;;;;6283814;27;89093;-67
2022/05/24 14:01:39;;;;;;;3.65;1.70;;;22.50;99.90;;;;;;6283635;27;88778;-67
2022/05/24 14:04:42;;;;;;;2.95;1.70;;;22.50;99.90;;;;;;6283460;27;89529;-68
2022/05/24 14:07:44;;;;;;;3.67;1.88;;;22.50;99.90;;;;;;6283462;27;89056;-68
2022/05/24 14:10:47;;;;;;;2.83;1.65;;;22.50;99.90;;;;;;6282747;27;90317;-67
2022/05/24 14:13:51;;;;;;;2.30;1.55;;;22.50;99.90;;;;;;6283470;27;89122;-67
2022/05/24 14:16:54;;;;;;;5.45;1.77;;;22.50;99.90;;;;;;6283333;27;90081;-67
2022/05/24 14:19:56;;;;;;;2.92;1.90;;;22.50;99.90;;;;;;6283577;27;89203;-68
2022/05/24 14:22:59;;;;;;;3.55;1.80;;;22.50;99.90;;;;;;6283850;27;89467;-67
2022/05/24 14:26:02;;;;;;;1.90;1.60;;;22.50;99.90;;;;;;6271962;27;89348;-68
2022/05/24 14:29:04;;;;;;;2.40;1.60;;;22.50;99.70;;;;;;6282727;27;89275;-67
2022/05/24 14:32:06;;;;;;;4.97;1.90;;;22.50;99.90;;;;;;6280015;27;88357;-69
2022/05/24 14:35:10;;;;;;;3.05;1.52;;;22.50;99.70;;;;;;6280421;27;89036;-68
2022/05/24 14:38:13;;;;;;;2.13;1.50;;;22.50;99.20;;;;;;6280538;27;88970;-68
2022/05/24 14:41:21;;;;;;;3.88;1.67;;;22.60;99.00;;;;;;6281766;27;90195;-68
2022/05/24 14:44:26;;;;;;;3.63;1.60;;;22.60;99.30;;;;;;6282713;27;89057;-69
2022/05/24 14:47:28;;;;;;;5.68;1.60;;;22.50;99.90;;;;;;6275431;27;88405;-70
2022/05/24 14:50:30;;;;;;;3.53;1.75;;;22.60;99.90;;;;;;6280042;27;89275;-69
2022/05/24 14:53:32;;;;;;;5.20;1.70;;;22.60;99.90;;;;;;6276378;27;88943;-69
2022/05/24 14:56:37;;;;;;;3.05;1.55;;;22.60;99.90;;;;;;6274814;27;89617;-66
2022/05/24 14:59:42;;;;;;;2.90;1.50;;;22.60;99.90;;;;;;6281418;27;89013;-68
2022/05/24 15:02:44;;;;;;;4.22;1.50;;;22.60;99.90;;;;;;6283586;27;87560;-68
2022/05/24 15:05:46;;;;;;;3.00;1.77;;;22.60;99.90;;;;;;6281730;27;89124;-69
2022/05/24 15:15:35;;;;;;;119.72;37.40;;;22.50;99.90;;;;;;6276259;27;88338;-69
2022/05/24 15:18:37;;;;;;;587.03;252.88;;;22.60;99.90;;;;;;6280879;27;89070;-67
2022/05/24 15:21:40;;;;;;;105.13;38.53;;;22.60;99.90;;;;;;6280810;27;89023;-70
2022/05/24 15:24:43;;;;;;;41.65;17.38;;;22.60;99.90;;;;;;6270212;27;89037;-66
2022/05/24 15:27:47;;;;;;;32.13;13.13;;;22.70;99.90;;;;;;6279734;27;89122;-66
2022/05/24 15:30:49;;;;;;;37.58;13.98;;;22.70;99.90;;;;;;6279948;27;89546;-67
2022/05/24 15:33:51;;;;;;;29.80;11.98;;;22.80;99.90;;;;;;6281876;27;88299;-67
2022/05/24 15:36:53;;;;;;;28.60;11.68;;;22.90;99.90;;;;;;6280997;27;89265;-67
2022/05/24 15:39:55;;;;;;;36.15;15.07;;;23.00;99.90;;;;;;6280922;27;89328;-67
2022/05/24 15:43:00;;;;;;;26.90;13.57;;;23.00;99.90;;;;;;6280293;27;89993;-67
2022/05/24 15:46:02;;;;;;;20.17;10.00;;;23.00;99.90;;;;;;6277246;27;89130;-67
2022/05/24 15:49:04;;;;;;;23.58;17.75;;;23.10;99.90;;;;;;6277429;27;88090;-67
2022/05/24 15:52:08;;;;;;;26.35;18.50;;;23.20;99.90;;;;;;6278966;27;91284;-66
2022/05/24 15:55:12;;;;;;;33.08;22.30;;;23.30;99.90;;;;;;6279086;27;89060;-68
2022/05/24 15:58:15;;;;;;;27.63;14.02;;;23.30;99.90;;;;;;6277636;27;88757;-68
2022/05/24 16:01:17;;;;;;;26.42;18.73;;;23.40;99.90;;;;;;6280588;27;89138;-66
2022/05/24 16:10:02;;;;;;;45.92;34.40;;;23.50;99.90;;;;;;6279933;27;88338;-67
2022/05/24 16:11:05;;;;;;;35.03;25.52;;;23.50;99.90;;;;;;6278654;27;87166;-68
2022/05/24 16:14:12;;;;;;;36.65;28.98;;;23.60;99.90;;;;;;6264257;27;89977;-68
2022/05/24 16:17:16;;;;;;;14.15;10.40;;;23.60;99.90;;;;;;6280195;27;89134;-67
2022/05/24 16:20:19;;;;;;;14.75;8.20;;;23.60;99.90;;;;;;6280493;27;87009;-69
2022/05/24 16:23:22;;;;;;;11.23;6.13;;;23.60;99.90;;;;;;6276097;27;89039;-66
2022/05/24 16:26:24;;;;;;;7.05;5.10;;;23.70;99.90;;;;;;6280104;27;89135;-66
2022/05/24 16:29:28;;;;;;;8.80;4.97;;;23.70;99.90;;;;;;6279806;27;89117;-67
2022/05/24 16:32:30;;;;;;;8.80;5.50;;;23.60;99.90;;;;;;6280694;27;89272;-67
2022/05/24 16:35:31;;;;;;;9.18;4.93;;;23.60;99.90;;;;;;6277083;27;88359;-67
2022/05/24 16:38:35;;;;;;;7.13;4.45;;;23.60;99.90;;;;;;6267200;27;89406;-67
2022/05/24 16:41:37;;;;;;;6.25;4.07;;;23.50;99.90;;;;;;6280685;27;89054;-67
2022/05/24 16:44:41;;;;;;;4.57;3.08;;;23.50;99.90;;;;;;6280319;27;89972;-66
2022/05/24 16:47:43;;;;;;;5.70;3.15;;;23.40;99.90;;;;;;6269128;27;87794;-67
2022/05/24 16:50:46;;;;;;;6.07;2.90;;;23.40;99.90;;;;;;6275756;27;89109;-66
2022/05/24 16:53:48;;;;;;;5.28;3.10;;;23.40;99.90;;;;;;6272957;27;89539;-67
2022/05/24 17:00:14;;;;;;;8.18;3.20;;;23.40;99.90;;;;;;6279889;27;87218;-68
2022/05/24 17:03:16;;;;;;;8.98;3.88;;;23.40;99.90;;;;;;6280043;27;89244;-67
2022/05/24 17:06:19;;;;;;;11.65;4.60;;;23.30;99.90;;;;;;6279528;27;88379;-69
2022/05/24 17:09:21;;;;;;;13.90;4.95;;;23.30;99.90;;;;;;6280189;27;89106;-68